Погода Борки (Грибовец)на неделю

Могилёвская область, Белоруссия

25 - 31 мая
  • 25мая
    Сегодня
    +10°
    +25°
    Ясно и безоблачно
    ВремяПогодаТемператураВлажностьДавлениеВетер, м/сВероятность осадков
    00:00Ясно и безоблачно+15°C52 %757 мм3.9 м/с2 %
    03:00Практически безоблачно+12°C56 %757 мм3.3 м/с2 %
    06:00Ясно и безоблачно+12°C62 %757 мм3.1 м/с2 %
    09:00Ясно и безоблачно+18°C59 %757 мм3.1 м/с2 %
    12:00Практически безоблачно+23°C43 %757 мм3.6 м/с2 %
    15:00Ясно и безоблачно+25°C39 %756 мм4.0 м/с2 %
    18:00Ясно и безоблачно+24°C38 %755 мм3.3 м/с2 %
    21:00Ясно и безоблачно+18°C63 %755 мм2.6 м/с2 %
  • 26мая
    Воскресенье
    +13°
    +25°
    Ясно и безоблачно
    ВремяПогодаТемператураВлажностьДавлениеВетер, м/сВероятность осадков
    00:00Ясно и безоблачно+15°C71 %755 мм2.5 м/с2 %
    03:00Практически безоблачно+13°C79 %755 мм2.4 м/с2 %
    06:00Небольшая облачность+12°C79 %755 мм1.3 м/с2 %
    09:00Облачно с прояснениями+19°C55 %756 мм1.3 м/с2 %
    12:00Небольшая облачность+23°C35 %756 мм2.9 м/с2 %
    15:00Ясно и безоблачно+25°C35 %755 мм2.6 м/с2 %
    18:00Ясно и безоблачно+24°C34 %754 мм1.9 м/с2 %
    21:00Ясно и безоблачно+21°C45 %754 мм0.9 м/с2 %
  • 27мая
    Понедельник
    +13°
    +26°
    Практически безоблачно
    ВремяПогодаТемператураВлажностьДавлениеВетер, м/сВероятность осадков
    00:00Ясно и безоблачно+15°C72 %754 мм2.3 м/с2 %
    03:00Ясно и безоблачно+13°C85 %754 мм2.0 м/с2 %
    06:00Ясно и безоблачно+14°C83 %754 мм1.4 м/с2 %
    09:00Ясно и безоблачно+21°C57 %755 мм1.2 м/с2 %
    12:00Ясно и безоблачно+25°C38 %755 мм2.0 м/с2 %
    15:00Практически безоблачно+26°C38 %754 мм2.4 м/с4 %
    18:00Ясно и безоблачно+25°C41 %753 мм2.4 м/с13 %
    21:00Ясно и безоблачно+23°C54 %753 мм1.3 м/с2 %
  • 28мая
    Вторник
    +14°
    +27°
    Практически безоблачно
    ВремяПогодаТемператураВлажностьДавлениеВетер, м/сВероятность осадков
    00:00Ясно и безоблачно+17°C80 %753 мм2.1 м/с2 %
    03:00Ясно и безоблачно+14°C88 %752 мм2.5 м/с2 %
    06:00Ясно и безоблачно+15°C79 %752 мм2.0 м/с2 %
    09:00Ясно и безоблачно+21°C61 %752 мм1.8 м/с3 %
    12:00Ясно и безоблачно+25°C44 %752 мм3.7 м/с5 %
    15:00Практически безоблачно+26°C47 %751 мм2.9 м/с20 %
    18:00Небольшая облачность, ливень+24°C73 %750 мм2.2 м/с42 %
    21:00Практически безоблачно+20°C82 %750 мм3.7 м/с7 %
  • 29мая
    Среда
    +14°
    +27°
    Практически безоблачно
    ВремяПогодаТемператураВлажностьДавлениеВетер, м/сВероятность осадков
    00:00Облачно с прояснениями+17°C89 %749 мм3.1 м/с2 %
    03:00Небольшая облачность+15°C90 %749 мм2.3 м/с2 %
    06:00Небольшая облачность+16°C82 %748 мм2.6 м/с2 %
    09:00Облачно с прояснениями+22°C61 %748 мм2.2 м/с2 %
    12:00Практически безоблачно+26°C43 %748 мм2.5 м/с4 %
    15:00Практически безоблачно+27°C32 %747 мм3.5 м/с14 %
    18:00Ясно и безоблачно+26°C35 %746 мм2.6 м/с16 %
    21:00Небольшая облачность+21°C53 %746 мм2.3 м/с4 %
Мы используем cookies
Соглашаюсь